Latest Weather Observations for Esperance Airport

IDW60801

Issued at 5:33 pm WST Wednesday 27 July 2016 (issued every 30 minutes, with the page automatically refreshed every 10 minutes)

About weather observations | Map of weather stations | Latest weather observations for WA | Other Formats
Station Details ID: 009542 Name: ESPERANCE AERO Lat: -33.68 Lon: 121.83 Height: 142.0 m
Data from the previous 72 hours. | See also: Recent months at Esperance Airport
Date/Time
WST
Temp
°C
App
Temp
°C
Dew
Point
°C
Rel
Hum
%
Delta-T
°C
Wind Press
QNH
hPa
Press
MSL
hPa
Rain since
9am
mm
Dir  Spd
km/h
Gust
km/h
Spd
kts
Gust
kts
27/05:30pm 13.4 11.6 9.5 77 2.0 E 9 13 5 7 1026.0 1026.1 0.0
27/05:00pm 14.2 12.3 9.2 72 2.6 E 9 9 5 5 1026.1 1026.2 0.0
27/04:30pm 15.4 14.0 9.5 68 3.1 E 7 11 4 6 1026.2 1026.3 0.0
27/04:00pm 15.8 14.3 9.2 65 3.4 ENE 7 11 4 6 1025.9 1026.0 0.0
27/03:30pm 17.1 15.9 9.5 61 4.0 N 6 9 3 5 1026.0 1026.1 0.0
27/03:00pm 16.4 15.0 8.9 61 3.9 W 6 11 3 6 1026.0 1026.1 0.0
27/02:30pm 16.4 14.1 8.9 61 3.9 WNW 11 15 6 8 1026.2 1026.3 0.0
27/02:00pm 16.0 13.8 9.2 64 3.5 NW 11 17 6 9 1026.1 1026.2 0.0
27/01:30pm 15.8 13.2 9.5 66 3.3 NW 13 19 7 10 1026.4 1026.5 0.0
27/01:00pm 16.1 13.5 9.3 64 3.5 NW 13 19 7 10 1026.9 1027.0 0.0
27/12:30pm 15.3 13.4 9.0 66 3.2 WNW 9 13 5 7 1026.7 1026.8 0.0
27/12:00pm 15.2 12.2 9.3 68 3.0 NW 15 20 8 11 1027.7 1027.8 0.0
27/11:30am 15.8 12.7 10.3 70 2.9 NW 17 24 9 13 1028.3 1028.4 0.0
27/11:00am 15.1 12.0 9.0 67 3.1 NW 15 19 8 10 1028.3 1028.4 0.0
27/10:30am 16.1 12.9 9.8 66 3.3 NW 17 20 9 11 1028.7 1028.8 0.0
27/10:00am 15.3 12.6 10.5 73 2.5 NW 15 19 8 10 1029.0 1029.1 0.0
27/09:30am 14.3 12.4 11.8 85 1.4 NW 13 17 7 9 1028.9 1029.0 0.0
27/09:00am 13.4 12.9 12.6 95 0.4 N 7 11 4 6 1028.7 1028.8 3.2
27/08:30am 12.3 11.1 11.7 96 0.3 N 9 11 5 6 1028.6 1028.7 3.2
27/08:00am 11.7 10.4 11.2 97 0.3 N 9 13 5 7 1028.7 1028.8 3.2
27/07:30am 11.4 10.0 10.9 97 0.3 N 9 11 5 6 1028.7 1028.8 3.2
27/07:00am 11.1 9.2 10.6 97 0.3 N 11 15 6 8 1028.5 1028.6 3.2
27/06:30am 10.9 9.0 10.4 97 0.3 N 11 15 6 8 1028.2 1028.3 3.2
27/06:20am 11.1 9.2 10.6 97 0.3 NNW 11 13 6 7 1028.1 1028.2 3.2
27/06:00am 11.4 9.6 10.9 97 0.3 NNW 11 13 6 7 1028.0 1028.1 3.2
27/05:56am 11.4 10.0 10.9 97 0.3 NNW 9 13 5 7 1027.9 1028.0 3.2
27/05:34am 11.5 9.4 11.0 97 0.3 NW 13 17 7 9 1027.8 1027.9 3.2
27/05:31am 11.6 9.9 11.1 97 0.3 NW 11 17 6 9 1027.8 1027.9 3.2
27/05:30am 11.6 9.9 11.1 97 0.3 NW 11 17 6 9 1027.8 1027.9 3.2
27/05:11am 11.5 10.5 11.0 97 0.3 WNW 7 9 4 5 1027.6 1027.7 3.2
27/05:00am 11.5 9.7 11.0 97 0.3 WNW 11 15 6 8 1027.5 1027.6 2.8
27/04:31am 11.5 10.5 11.0 97 0.3 NW 7 9 4 5 1027.4 1027.5 2.8
27/04:30am 11.5 10.5 11.0 97 0.3 NW 7 9 4 5 1027.4 1027.5 2.8
27/04:20am 11.4 10.4 10.9 97 0.3 NNW 7 9 4 5 1027.4 1027.5 2.8
27/04:00am 11.3 10.2 10.8 97 0.3 NW 7 9 4 5 1027.3 1027.4 2.8
27/03:30am 11.8 10.5 11.3 97 0.3 WNW 9 11 5 6 1027.5 1027.6 2.8
27/03:00am 11.8 10.1 11.3 97 0.3 W 11 17 6 9 1027.6 1027.7 2.8
27/02:30am 11.9 10.6 11.3 96 0.3 WNW 9 11 5 6 1027.7 1027.8 2.8
27/02:00am 11.8 10.5 11.2 96 0.3 WNW 9 11 5 6 1027.6 1027.7 2.6
27/01:30am 11.9 10.6 11.3 96 0.3 WNW 9 11 5 6 1027.7 1027.8 2.6
27/01:00am 11.8 10.1 11.2 96 0.3 W 11 13 6 7 1027.6 1027.7 2.4
27/12:30am 11.7 10.4 11.1 96 0.3 WNW 9 11 5 6 1027.5 1027.6 2.4
27/12:00am 11.6 10.6 11.0 96 0.3 NW 7 9 4 5 1027.4 1027.5 2.2
 
Date/Time
WST
Temp
°C
App
Temp
°C
Dew
Point
°C
Rel
Hum
%
Delta-T
°C
Wind Press
QNH
hPa
Press
MSL
hPa
Rain since
9am
mm
Dir  Spd
km/h
Gust
km/h
Spd
kts
Gust
kts
26/11:41pm 11.7 10.7 11.1 96 0.3 WNW 7 9 4 5 1027.5 1027.6 2.2
26/11:40pm 11.7 10.7 11.1 96 0.3 WNW 7 9 4 5 1027.5 1027.6 2.2
26/11:30pm 11.7 10.4 11.1 96 0.3 WNW 9 11 5 6 1027.5 1027.6 2.2
26/11:00pm 11.8 10.5 11.2 96 0.3 WNW 9 11 5 6 1027.5 1027.6 2.2
26/10:30pm 11.9 10.6 11.3 96 0.3 WNW 9 11 5 6 1027.7 1027.8 2.2
26/10:00pm 11.6 10.2 10.8 95 0.4 W 9 9 5 5 1027.8 1027.9 2.2
26/09:53pm 11.5 10.0 10.7 95 0.4 W 9 9 5 5 1027.8 1027.9 2.2
26/09:47pm 11.4 9.9 10.6 95 0.4 W 9 11 5 6 1027.8 1027.9 2.2
26/09:30pm 11.9 10.6 11.1 95 0.4 WNW 9 13 5 7 1027.7 1027.8 2.2
26/09:00pm 12.0 10.7 11.2 95 0.4 WNW 9 11 5 6 1027.8 1027.9 2.2
26/08:30pm 12.0 11.1 11.2 95 0.4 W 7 11 4 6 1027.6 1027.7 2.0
26/08:00pm 11.9 10.9 11.0 94 0.5 W 7 9 4 5 1027.6 1027.7 2.0
26/07:30pm 11.7 10.3 10.8 94 0.5 WNW 9 9 5 5 1027.4 1027.5 2.0
26/07:00pm 12.2 10.9 11.3 94 0.5 W 9 9 5 5 1027.1 1027.2 2.0
26/06:30pm 12.4 11.2 11.5 94 0.5 WSW 9 11 5 6 1026.8 1026.9 2.0
26/06:00pm 12.3 11.0 11.4 94 0.5 WSW 9 11 5 6 1026.7 1026.8 2.0
26/05:34pm 12.4 11.1 11.3 93 0.6 WSW 9 13 5 7 1026.4 1026.5 2.0
26/05:30pm 12.4 10.7 11.3 93 0.6 SW 11 17 6 9 1026.3 1026.4 2.0
26/05:23pm 12.5 10.5 11.4 93 0.6 SW 13 17 7 9 1026.3 1026.4 2.0
26/05:00pm 12.5 10.4 11.2 92 0.7 WSW 13 19 7 10 1026.0 1026.1 2.0
26/04:30pm 12.9 9.8 11.5 91 0.7 SW 19 30 10 16 1025.9 1026.0 2.0
26/04:00pm 13.2 10.2 12.1 93 0.6 WSW 19 24 10 13 1025.9 1026.0 2.0
26/03:54pm 13.2 10.6 12.1 93 0.6 WSW 17 24 9 13 1025.9 1026.0 2.0
26/03:39pm 13.2 10.2 12.1 93 0.6 WSW 19 26 10 14 1025.9 1026.0 2.0
26/03:30pm 13.2 10.6 12.1 93 0.6 WSW 17 22 9 12 1025.8 1025.9 2.0
26/03:27pm 13.2 10.7 12.3 94 0.5 WSW 17 22 9 12 1025.7 1025.8 2.0
26/03:09pm 13.1 10.0 12.2 94 0.5 SW 20 28 11 15 1025.7 1025.8 2.0
26/03:00pm 12.8 9.6 11.9 94 0.5 WSW 20 26 11 14 1025.7 1025.8 2.0
26/02:30pm 13.4 10.0 12.5 94 0.5 WSW 22 28 12 15 1025.6 1025.7 1.4
26/02:00pm 13.3 10.2 12.2 93 0.6 WSW 20 28 11 15 1025.3 1025.3 0.6
26/01:30pm 13.0 9.0 11.9 93 0.6 WSW 24 33 13 18 1025.1 1025.1 0.4
26/01:14pm 12.8 9.5 11.7 93 0.6 WSW 20 28 11 15 1025.1 1025.1 0.4
26/01:00pm 13.1 9.5 12.0 93 0.6 WSW 22 32 12 17 1025.1 1025.1 0.4
26/12:53pm 13.1 8.7 11.8 92 0.7 WSW 26 35 14 19 1025.2 1025.2 0.4
26/12:37pm 12.7 9.3 11.4 92 0.7 WSW 20 28 11 15 1025.3 1025.3 0.4
26/12:30pm 13.0 9.7 11.7 92 0.7 WSW 20 28 11 15 1025.4 1025.4 0.2
26/12:00pm 13.2 10.0 11.9 92 0.7 WSW 20 30 11 16 1025.6 1025.7 0.2
26/11:55am 12.8 9.1 11.5 92 0.7 WSW 22 30 12 16 1025.6 1025.7 0.2
26/11:33am 12.3 8.8 11.0 92 0.7 W 20 28 11 15 1025.8 1025.9 0.2
26/11:30am 12.4 9.0 11.1 92 0.7 W 20 26 11 14 1025.8 1025.9 0.2
26/11:13am 12.3 8.5 11.2 93 0.6 W 22 28 12 15 1025.9 1026.0 0.2
26/11:00am 11.9 7.9 10.6 92 0.7 W 22 32 12 17 1026.0 1026.1 0.2
26/10:30am 11.9 8.0 10.8 93 0.6 WSW 22 28 12 15 1025.9 1026.0 0.2
26/10:00am 10.9 6.4 10.0 94 0.5 WSW 24 30 13 16 1025.8 1025.9 0.2
26/09:48am 10.9 6.0 10.1 95 0.4 WSW 26 35 14 19 1025.7 1025.8 0.2
26/09:30am 10.5 5.9 9.6 94 0.5 W 24 32 13 17 1025.6 1025.7 0.2
26/09:00am 10.1 4.6 9.0 93 0.5 W 28 37 15 20 1025.2 1025.2 0.4
26/08:31am 10.1 4.8 8.5 90 0.8 W 26 32 14 17 1025.1 1025.1 0.4
26/08:30am 10.1 4.8 8.5 90 0.8 W 26 32 14 17 1025.1 1025.1 0.4
26/08:28am 10.1 4.8 8.4 89 0.8 W 26 32 14 17 1025.1 1025.1 0.4
26/08:00am 9.6 4.6 8.0 90 0.8 WNW 24 33 13 18 1024.5 1024.5 0.4
26/07:30am 9.1 4.0 7.7 91 0.7 WNW 24 30 13 16 1024.6 1024.6 0.4
26/07:00am 8.7 3.9 7.5 92 0.6 WNW 22 30 12 16 1024.4 1024.4 0.4
26/06:30am 7.7 3.3 6.6 93 0.5 WNW 19 24 10 13 1024.0 1024.0 0.4
26/06:00am 7.5 3.1 6.4 93 0.5 WNW 19 24 10 13 1023.7 1023.8 0.4
26/05:30am 7.5 2.9 6.4 93 0.5 WNW 20 24 11 13 1023.7 1023.8 0.4
26/05:00am 7.3 2.7 6.4 94 0.4 WNW 20 24 11 13 1023.3 1023.4 0.4
26/04:30am 7.5 2.2 6.6 94 0.4 WNW 24 32 13 17 1023.4 1023.5 0.4
26/04:00am 7.8 2.9 6.9 94 0.4 WNW 22 30 12 16 1023.4 1023.5 0.4
26/03:30am 8.1 3.7 7.3 95 0.4 WNW 20 26 11 14 1023.3 1023.4 0.4
26/03:00am 8.4 4.1 7.8 96 0.3 WNW 20 24 11 13 1023.3 1023.4 0.4
26/02:30am 8.8 4.6 8.2 96 0.3 WNW 20 28 11 15 1023.6 1023.7 0.4
26/02:00am 9.1 5.0 8.5 96 0.3 WNW 20 26 11 14 1024.0 1024.0 0.4
26/01:30am 9.3 5.4 8.7 96 0.3 NW 19 22 10 12 1023.9 1023.9 0.4
26/01:26am 9.4 5.9 8.8 96 0.3 NW 17 22 9 12 1023.9 1023.9 0.4
26/01:00am 9.5 5.7 8.9 96 0.3 NW 19 22 10 12 1023.9 1023.9 0.4
26/12:30am 9.7 5.7 9.1 96 0.3 WNW 20 26 11 14 1024.3 1024.3 0.4
26/12:00am 10.1 6.2 9.5 96 0.3 WNW 20 24 11 13 1024.3 1024.3 0.4
 
Date/Time
WST
Temp
°C
App
Temp
°C
Dew
Point
°C
Rel
Hum
%
Delta-T
°C
Wind Press
QNH
hPa
Press
MSL
hPa
Rain since
9am
mm
Dir  Spd
km/h
Gust
km/h
Spd
kts
Gust
kts
25/11:53pm 10.1 6.4 9.5 96 0.3 WNW 19 22 10 12 1024.4 1024.4 0.4
25/11:30pm 10.0 6.3 9.4 96 0.3 NW 19 24 10 13 1024.4 1024.4 0.4
25/11:00pm 9.8 5.8 9.2 96 0.3 NW 20 26 11 14 1024.7 1024.7 0.2
25/10:30pm 9.5 7.2 8.9 96 0.3 NW 11 15 6 8 1024.9 1024.9 0.2
25/10:04pm 9.5 7.2 8.9 96 0.3 NNW 11 13 6 7 1024.9 1024.9 0.2
25/10:02pm 9.4 7.0 8.8 96 0.3 NNW 11 13 6 7 1025.0 1025.0 0.2
25/10:00pm 9.5 7.2 8.9 96 0.3 NNW 11 13 6 7 1025.0 1025.0 0.2
25/09:53pm 9.5 7.5 8.7 95 0.4 NW 9 13 5 7 1024.9 1024.9 0.2
25/09:39pm 9.8 7.9 9.0 95 0.4 NNW 9 13 5 7 1025.4 1025.4 0.2
25/09:30pm 9.6 7.6 8.8 95 0.4 NNW 9 13 5 7 1025.4 1025.4 0.2
25/09:12pm 9.4 7.4 8.6 95 0.4 NW 9 11 5 6 1025.5 1025.6 0.2
25/09:00pm 9.5 7.5 8.7 95 0.4 NNW 9 11 5 6 1025.5 1025.6 0.2
25/08:52pm 9.7 7.8 8.9 95 0.4 NNW 9 11 5 6 1025.5 1025.6 0.2
25/08:30pm 9.5 7.9 8.7 95 0.4 NW 7 9 4 5 1025.6 1025.7 0.2
25/08:29pm 9.5 7.9 8.7 95 0.4 NW 7 9 4 5 1025.6 1025.7 0.2
25/08:24pm 9.8 8.3 9.0 95 0.4 NW 7 9 4 5 1025.6 1025.7 0.2
25/08:00pm 9.8 8.4 9.0 95 0.4 NW 6 7 3 4 1025.8 1025.9 0.2
25/07:30pm 9.9 8.4 9.1 95 0.4 WNW 7 9 4 5 1025.5 1025.6 0.2
25/07:13pm 10.4 9.0 9.6 95 0.4 W 7 9 4 5 1025.4 1025.4 0.2
25/07:00pm 10.2 8.7 9.3 94 0.4 W 7 9 4 5 1025.3 1025.3 0.2
25/06:46pm 9.9 8.9 9.0 94 0.4 WSW 4 7 2 4 1025.0 1025.0 0.2
25/06:30pm 10.3 9.1 9.4 94 0.5 WSW 6 7 3 4 1024.9 1024.9 0.2
25/06:15pm 10.7 9.0 9.8 94 0.5 W 9 13 5 7 1025.0 1025.0 0.2
25/06:00pm 10.7 8.6 9.6 93 0.6 WSW 11 13 6 7 1025.1 1025.1 0.2
25/05:34pm 11.0 9.2 9.6 91 0.7 SW 9 11 5 6 1024.9 1024.9 0.2
25/05:30pm 11.0 9.2 9.6 91 0.7 SW 9 11 5 6 1024.8 1024.8 0.2
25/05:22pm 11.0 9.2 9.4 90 0.8 SW 9 13 5 7 1024.8 1024.8 0.2
25/05:01pm 11.2 7.8 9.1 87 1.1 SW 17 22 9 12 1024.7 1024.7 0.2
25/05:00pm 11.3 7.9 9.0 86 1.1 SW 17 22 9 12 1024.7 1024.7 0.0
25/04:30pm 12.8 10.4 8.5 75 2.2 SSW 11 15 6 8 1024.4 1024.4 0.0
25/04:00pm 13.1 9.8 8.2 72 2.4 SSW 15 17 8 9 1024.4 1024.4 0.0
25/03:30pm 13.5 9.9 8.4 71 2.6 SSW 17 24 9 13 1024.2 1024.2 0.0
25/03:00pm 13.8 10.4 9.0 73 2.4 SSW 17 26 9 14 1024.0 1024.0 0.0
25/02:30pm 13.1 8.6 8.6 74 2.3 SSW 22 30 12 16 1024.2 1024.2 0.0
25/02:00pm 15.2 11.0 9.8 70 2.8 SSW 22 33 12 18 1024.0 1024.0 0.0
25/01:30pm 15.0 11.1 9.6 70 2.8 SSW 20 30 11 16 1024.0 1024.0 0.0
25/01:00pm 13.4 9.2 9.8 79 1.9 SSW 22 28 12 15 1024.4 1024.4 0.0
25/12:30pm 13.2 9.1 10.2 82 1.6 SW 22 33 12 18 1024.6 1024.6 0.0
25/12:00pm 13.4 9.5 9.6 78 1.9 WSW 20 26 11 14 1025.0 1025.0 0.0
25/11:30am 14.4 10.7 10.0 75 2.3 WSW 20 28 11 15 1025.2 1025.2 0.0
25/11:00am 13.1 8.8 9.5 79 1.8 WSW 22 37 12 20 1025.6 1025.7 0.0
25/10:30am 12.9 9.1 9.7 81 1.6 W 20 30 11 16 1025.8 1025.9 0.0
25/10:00am 12.6 8.9 10.0 84 1.3 W 20 26 11 14 1025.9 1026.0 0.0
25/09:48am 12.1 8.4 10.0 87 1.1 W 20 24 11 13 1025.9 1026.0 0.0
25/09:30am 11.5 7.8 10.1 91 0.7 W 20 26 11 14 1025.8 1025.9 0.0
25/09:00am 9.9 6.1 9.0 94 0.4 W 19 26 10 14 1025.7 1025.8 0.2
25/08:30am 9.1 5.1 8.3 95 0.4 WNW 19 22 10 12 1025.5 1025.6 0.2
25/08:00am 8.6 4.5 7.8 95 0.4 WNW 19 24 10 13 1025.4 1025.4 0.2
25/07:30am 7.9 4.0 7.1 95 0.4 WNW 17 22 9 12 1025.2 1025.2 0.2
25/07:00am 7.2 3.1 6.3 94 0.4 WNW 17 19 9 10 1025.0 1025.0 0.2
25/06:46am 7.1 3.0 6.2 94 0.4 WNW 17 20 9 11 1024.8 1024.8 0.2
25/06:30am 7.2 3.1 6.3 94 0.4 WNW 17 20 9 11 1024.7 1024.7 0.2
25/06:27am 7.2 3.1 6.3 94 0.4 WNW 17 24 9 13 1024.7 1024.7 0.2
25/06:19am 7.1 3.0 6.2 94 0.4 WNW 17 24 9 13 1024.6 1024.6 0.2
25/06:00am 7.0 2.8 5.9 93 0.5 WNW 17 19 9 10 1024.4 1024.4 0.2
25/05:43am 7.1 2.6 6.0 93 0.5 WNW 19 22 10 12 1024.3 1024.3 0.0
25/05:42am 7.1 2.6 6.0 93 0.5 WNW 19 24 10 13 1024.3 1024.3 0.0
25/05:30am 7.2 2.1 6.0 92 0.5 WNW 22 28 12 15 1024.1 1024.1 0.0
25/05:25am 7.2 2.1 6.0 92 0.5 WNW 22 28 12 15 1024.1 1024.1 0.0
25/05:10am 7.4 1.5 5.9 90 0.7 WNW 26 32 14 17 1023.9 1023.9 0.0
25/05:06am 7.5 1.7 6.1 91 0.6 WNW 26 32 14 17 1023.9 1023.9 0.0
25/05:00am 7.4 1.9 5.9 90 0.7 WNW 24 32 13 17 1023.7 1023.8 0.0
25/04:58am 7.4 1.9 5.9 90 0.7 WNW 24 30 13 16 1023.7 1023.8 0.0
25/04:54am 7.4 1.9 5.9 90 0.7 WNW 24 30 13 16 1023.7 1023.8 0.0
25/04:47am 7.5 2.0 5.8 89 0.8 WNW 24 30 13 16 1023.7 1023.8 0.0
25/04:30am 7.1 1.5 5.4 89 0.8 WNW 24 32 13 17 1023.6 1023.7 0.0
25/04:00am 7.2 1.9 5.2 87 0.9 WNW 22 28 12 15 1023.9 1023.9 0.0
25/03:30am 7.2 1.9 5.0 86 1.0 WNW 22 28 12 15 1024.1 1024.1 0.0
25/03:00am 7.0 1.7 4.8 86 1.0 WNW 22 28 12 15 1024.2 1024.2 0.0
25/02:30am 7.1 1.7 4.6 84 1.1 WNW 22 35 12 19 1024.2 1024.2 0.0
25/02:00am 7.6 2.3 4.9 83 1.2 WNW 22 28 12 15 1024.1 1024.1 0.0
25/01:30am 7.8 2.5 4.9 82 1.3 NW 22 30 12 16 1024.2 1024.2 0.0
25/01:00am 8.0 3.3 5.1 82 1.3 WNW 19 22 10 12 1024.2 1024.2 0.0
25/12:30am 8.2 4.0 5.5 83 1.2 WNW 17 20 9 11 1024.7 1024.7 0.0
25/12:00am 8.0 3.2 5.5 84 1.1 WNW 20 24 11 13 1024.9 1024.9 0.0
 
Date/Time
WST
Temp
°C
App
Temp
°C
Dew
Point
°C
Rel
Hum
%
Delta-T
°C
Wind Press
QNH
hPa
Press
MSL
hPa
Rain since
9am
mm
Dir  Spd
km/h
Gust
km/h
Spd
kts
Gust
kts
24/11:30pm 8.3 3.5 5.4 82 1.3 WNW 20 26 11 14 1024.9 1024.9 0.0
24/11:00pm 9.3 3.8 5.9 79 1.6 WNW 24 28 13 15 1024.9 1024.9 0.0
24/10:30pm 10.2 5.2 6.4 77 1.8 WNW 22 30 12 16 1025.0 1025.0 0.0
24/10:00pm 10.3 5.9 6.6 78 1.7 WNW 19 24 10 13 1025.1 1025.1 0.0
24/09:30pm 10.4 5.8 6.5 77 1.8 WNW 20 26 11 14 1024.9 1024.9 0.0
24/09:00pm 10.6 6.2 6.4 75 2.0 NW 19 22 10 12 1024.9 1024.9 0.0
24/08:30pm 10.7 6.3 6.5 75 2.0 NW 19 26 10 14 1024.9 1024.9 0.0
24/08:00pm 10.6 6.0 6.7 77 1.8 WNW 20 24 11 13 1025.0 1025.0 0.0
24/07:30pm 10.4 6.2 7.3 81 1.5 WNW 19 22 10 12 1025.0 1025.0 0.0
24/07:00pm 10.2 6.8 7.6 84 1.2 WNW 15 19 8 10 1025.0 1025.0 0.0
24/06:30pm 9.7 6.8 8.0 89 0.8 NW 13 17 7 9 1024.8 1024.8 0.0
24/06:00pm 9.2 6.2 7.8 91 0.7 WNW 13 15 7 8 1024.7 1024.7 0.0

Other Formats:

Comma delimited format used in spreadsheet applications
http://www.bom.gov.au/fwo/IDW60801/IDW60801.95638.axf

JavaScript Object Notation format (JSON) in row-major order
http://www.bom.gov.au/fwo/IDW60801/IDW60801.95638.json